Time;durP1;ratioP1;P1;durP2;ratioP2;P2;SDS_P1;SDS_P2;PMS_P1;PMS_P2;Temp;Humidity;BMP_temperature;BMP_pressure;BME280_temperature;BME280_humidity;BME280_pressure;Samples;Min_cycle;Max_cycle;Signal;HPM_P1;HPM_P2
2022/08/04 00:01:23;;;;;;;13.40;11.97;;;23.00;28.00;;;23.21;57.59;100882.78;5050218;28;20461;-71
2022/08/04 00:04:02;;;;;;;16.80;12.07;;;23.00;28.60;;;23.19;58.04;100885.03;5049439;28;20496;-71
2022/08/04 00:06:49;;;;;;;11.80;10.03;;;23.00;29.20;;;23.19;58.27;100883.06;5047461;28;20521;-71
2022/08/04 00:09:35;;;;;;;16.07;11.80;;;22.90;29.80;;;23.18;58.27;100877.84;5052045;28;20464;-71
2022/08/04 00:12:11;;;;;;;11.37;10.07;;;22.90;30.80;;;23.18;58.30;100883.38;5051065;28;20435;-71
2022/08/04 00:14:50;;;;;;;11.50;10.33;;;22.90;31.20;;;23.15;58.12;100878.41;5054743;28;20478;-71
2022/08/04 00:17:27;;;;;;;12.70;9.17;;;22.90;31.30;;;23.17;58.02;100870.66;5049597;28;20429;-71
2022/08/04 00:20:01;;;;;;;11.03;9.93;;;22.90;30.60;;;23.15;57.98;100879.22;5050969;28;20430;-72
2022/08/04 00:22:33;;;;;;;12.13;10.63;;;22.90;31.30;;;23.14;58.26;100880.31;5035756;28;20447;-72
2022/08/04 00:25:06;;;;;;;14.20;12.57;;;22.90;31.90;;;23.15;58.31;100878.41;5062457;28;20808;-71
2022/08/04 00:27:36;;;;;;;11.90;9.67;;;22.90;31.90;;;23.09;58.17;100869.31;5058590;28;20495;-72
2022/08/04 00:30:08;;;;;;;12.43;10.80;;;22.90;32.30;;;23.05;58.40;100878.47;5058683;28;20441;-71
2022/08/04 00:32:40;;;;;;;10.40;9.40;;;22.80;32.30;;;22.99;58.74;100876.84;5058913;28;20443;-72
2022/08/04 00:35:13;;;;;;;13.70;10.30;;;22.80;32.90;;;22.94;58.66;100878.53;5041762;28;20456;-71
2022/08/04 00:37:45;;;;;;;12.13;10.93;;;22.80;33.50;;;;;;5038859;28;20447;-71
2022/08/04 00:40:32;;;;;;;13.27;10.03;;;22.70;34.10;;;22.86;59.23;100873.59;5061699;28;20405;-71
2022/08/04 00:43:16;;;;;;;14.97;10.10;;;22.70;34.80;;;22.86;59.33;100876.34;5055469;28;20443;-71
2022/08/04 00:46:19;;;;;;;11.10;9.87;;;22.70;36.20;;;22.85;59.11;100874.69;5061487;28;20471;-71
2022/08/04 00:49:33;;;;;;;10.43;9.40;;;22.70;36.70;;;22.77;59.70;100878.06;5064677;28;20477;-72
2022/08/04 00:52:23;;;;;;;13.87;10.43;;;22.60;38.40;;;22.71;59.66;100881.13;5048887;28;20474;-72
2022/08/04 00:55:22;;;;;;;11.00;10.10;;;22.60;38.60;;;22.64;60.00;100880.59;5063702;28;20451;-72
2022/08/04 00:58:22;;;;;;;10.63;9.63;;;22.50;39.30;;;22.60;60.11;100872.06;5062035;28;20808;-71
2022/08/04 01:01:08;;;;;;;10.30;9.20;;;22.50;41.00;;;22.56;60.09;100879.22;5059382;28;20442;-71
2022/08/04 01:03:57;;;;;;;15.23;9.80;;;22.40;41.90;;;22.53;60.14;100874.28;5051836;28;20902;-71
2022/08/04 01:06:42;;;;;;;13.60;9.77;;;22.30;43.10;;;22.52;60.30;100873.44;5049720;28;20467;-72
2022/08/04 01:09:48;;;;;;;10.80;9.80;;;22.40;44.00;;;22.48;60.57;100875.13;5049360;28;20458;-72
2022/08/04 01:12:43;;;;;;;11.23;8.67;;;22.30;44.60;;;22.47;60.76;100872.63;5047835;28;20467;-72
2022/08/04 01:15:28;;;;;;;10.53;9.43;;;22.30;46.00;;;22.45;60.75;100875.69;5030803;28;20459;-72
2022/08/04 01:18:08;;;;;;;9.63;8.63;;;22.30;46.80;;;22.46;60.67;100874.56;5046157;28;20461;-72
2022/08/04 01:21:02;;;;;;;9.67;8.73;;;22.30;46.40;;;22.48;60.18;100880.66;5049461;28;21015;-71
2022/08/04 01:24:12;;;;;;;11.07;9.13;;;22.30;45.70;;;22.46;60.53;100876.53;5047453;28;20417;-71
2022/08/04 01:26:52;;;;;;;9.97;9.07;;;22.30;46.30;;;22.44;60.61;100875.97;5048459;28;21121;-71
2022/08/04 01:29:30;;;;;;;9.53;8.37;;;22.20;47.80;;;22.41;60.41;100868.28;5048325;28;20497;-71
2022/08/04 01:32:21;;;;;;;10.73;9.43;;;22.20;48.10;;;22.33;61.18;100866.06;5050119;28;20453;-72
2022/08/04 01:35:06;;;;;;;9.50;8.50;;;22.10;50.30;;;22.28;61.08;100866.09;5047073;28;20475;-71
2022/08/04 01:37:54;;;;;;;10.77;9.57;;;22.10;52.00;;;22.20;61.95;100867.50;5049814;28;20409;-71
2022/08/04 01:40:27;;;;;;;10.03;8.93;;;22.00;54.90;;;22.20;61.81;100869.44;5048843;28;20443;-71
2022/08/04 01:43:01;;;;;;;9.67;8.67;;;22.00;56.70;;;22.24;61.40;100867.75;5049949;28;20439;-71
2022/08/04 01:45:33;;;;;;;9.87;9.00;;;22.00;56.10;;;22.32;61.55;100869.94;5049859;28;20445;-71
2022/08/04 01:48:07;;;;;;;12.23;9.30;;;22.10;56.40;;;22.25;61.59;100870.25;5048556;28;20809;-70
2022/08/04 01:50:37;;;;;;;13.73;9.50;;;22.10;57.10;;;22.25;61.30;100874.94;5049353;28;20435;-70
2022/08/04 01:53:06;;;;;;;11.70;9.63;;;22.10;56.90;;;22.30;61.03;100883.19;5049870;28;20439;-71
2022/08/04 01:55:37;;;;;;;12.63;9.80;;;22.10;54.50;;;22.29;61.22;100870.50;5049467;28;20475;-70
2022/08/04 01:58:25;;;;;;;9.33;8.33;;;22.10;54.70;;;22.22;61.06;100879.06;5047671;28;20639;-71
2022/08/04 02:01:02;;;;;;;9.70;8.73;;;22.00;55.70;;;22.10;61.79;100871.13;5040809;28;20410;-71
2022/08/04 02:03:40;;;;;;;11.60;8.83;;;22.00;57.70;;;22.17;61.65;100872.75;5045877;28;20409;-71
2022/08/04 02:06:40;;;;;;;9.63;8.83;;;22.00;58.50;;;22.23;61.46;100871.63;5050684;28;20920;-71
2022/08/04 02:09:22;;;;;;;9.50;8.60;;;22.00;58.20;;;22.16;61.60;100876.63;5047832;28;20412;-70
2022/08/04 02:12:04;;;;;;;9.03;8.13;;;22.00;58.20;;;22.05;61.87;100864.78;5049335;28;20558;-70
2022/08/04 02:14:56;;;;;;;11.00;7.53;;;21.90;59.70;;;21.92;62.29;100868.91;5048690;28;20440;-71
2022/08/04 02:17:32;;;;;;;9.20;8.30;;;21.80;61.10;;;21.83;62.12;100872.50;5047734;28;20469;-71
2022/08/04 02:20:09;;;;;;;8.60;7.90;;;21.70;64.60;;;21.73;62.75;100867.00;5052987;28;20442;-71
2022/08/04 02:23:02;;;;;;;9.10;8.30;;;21.60;68.50;;;21.65;63.21;100871.13;5050502;28;20417;-72
2022/08/04 02:25:39;;;;;;;8.87;8.00;;;21.50;72.20;;;21.64;63.01;100869.47;5050234;28;20453;-71
2022/08/04 02:28:22;;;;;;;9.30;8.40;;;21.50;74.80;;;21.60;63.25;100862.88;5051697;28;20801;-71
2022/08/04 02:31:04;;;;;;;10.47;8.27;;;21.40;77.50;;;21.56;63.80;100857.09;5048404;28;20415;-71
2022/08/04 02:33:39;;;;;;;10.27;9.27;;;21.40;82.00;;;21.57;63.46;100860.69;5046215;28;20456;-71
2022/08/04 02:36:16;;;;;;;11.77;9.30;;;21.40;80.70;;;21.54;63.15;100858.50;5051328;28;20466;-72
2022/08/04 02:38:59;;;;;;;11.30;8.43;;;21.40;78.70;;;21.53;62.82;100851.31;5050261;28;20442;-71
2022/08/04 02:41:30;;;;;;;8.07;7.27;;;21.40;77.80;;;21.53;63.53;100854.06;5048338;28;20664;-70
2022/08/04 02:44:03;;;;;;;16.10;9.30;;;21.30;80.10;;;21.53;63.70;100851.31;5049538;28;20436;-72
2022/08/04 02:46:34;;;;;;;11.00;8.80;;;21.30;84.80;;;21.53;63.41;100854.91;5052448;28;20460;-72
2022/08/04 02:49:09;;;;;;;10.70;9.47;;;21.30;85.30;;;21.53;63.43;100851.31;5049572;28;20919;-72
2022/08/04 02:51:43;;;;;;;8.90;8.00;;;21.30;85.70;;;21.50;63.32;100852.69;5049896;28;20417;-72
2022/08/04 02:54:16;;;;;;;8.23;7.43;;;21.30;85.20;;;21.49;63.08;100850.22;5050320;28;20659;-72
2022/08/04 02:57:02;;;;;;;10.60;8.53;;;21.30;81.20;;;21.44;63.37;100848.31;5050445;28;20459;-71
2022/08/04 02:59:56;;;;;;;9.27;8.37;;;21.30;82.10;;;21.43;63.10;100852.16;5053444;28;20439;-71
2022/08/04 03:02:47;;;;;;;10.20;8.00;;;21.30;80.60;;;21.39;63.48;100850.22;5050187;28;20434;-71
2022/08/04 03:05:22;;;;;;;9.67;8.67;;;21.30;82.90;;;21.50;63.25;100852.69;5050381;28;21051;-71
2022/08/04 03:09:11;;;;;;;9.37;8.57;;;21.30;82.10;;;21.52;62.79;100852.41;5048304;28;20466;-71
2022/08/04 03:12:25;;;;;;;14.57;8.77;;;21.30;77.00;;;21.48;62.85;100851.31;4966395;28;20462;-71
2022/08/04 03:15:47;;;;;;;12.47;8.67;;;21.30;77.00;;;21.44;62.78;100852.97;5052440;28;20953;-72
2022/08/04 03:19:03;;;;;;;10.67;9.67;;;21.30;78.60;;;21.41;63.46;100859.00;5049909;28;20493;-70
2022/08/04 03:22:16;;;;;;;9.63;8.57;;;21.30;82.00;;;21.31;63.23;100867.25;5049889;28;20436;-71
2022/08/04 03:25:28;;;;;;;10.43;8.43;;;21.20;81.60;;;21.21;63.78;100860.66;5050859;28;20450;-71
2022/08/04 03:28:40;;;;;;;12.20;9.33;;;21.10;84.30;;;21.16;64.16;100862.56;5047533;28;20852;-72
2022/08/04 03:32:14;;;;;;;10.80;8.00;;;21.10;87.60;;;21.12;64.31;100856.75;5031154;28;20798;-71
2022/08/04 03:35:11;;;;;;;8.67;7.87;;;21.00;89.90;;;21.10;64.54;100853.47;4988377;28;20450;-72
2022/08/04 03:38:22;;;;;;;14.60;8.30;;;21.00;90.60;;;21.10;64.58;100853.47;5050504;28;20430;-72
2022/08/04 03:41:27;;;;;;;10.00;8.10;;;21.00;91.00;;;21.17;64.37;100851.28;5047191;28;20443;-71
2022/08/04 03:45:11;;;;;;;12.67;9.37;;;21.00;91.20;;;21.25;64.10;100850.75;5049656;28;20418;-72
2022/08/04 03:48:23;;;;;;;9.27;8.03;;;21.00;91.30;;;21.32;63.88;100849.66;5050951;28;20474;-72
2022/08/04 03:55:20;;;;;;;11.03;9.10;;;21.10;90.70;;;21.71;62.50;100848.00;5050343;28;20489;-72
2022/08/04 03:58:42;;;;;;;13.10;9.07;;;21.30;87.40;;;21.76;61.30;100856.25;5048987;28;20410;-71
2022/08/04 04:01:43;;;;;;;13.10;9.30;;;21.40;78.80;;;21.81;61.01;100853.50;5001518;28;20441;-71
2022/08/04 04:04:57;;;;;;;10.57;9.50;;;21.40;72.00;;;22.53;60.08;100849.47;5050788;28;20439;-70
2022/08/04 04:08:26;;;;;;;9.67;8.70;;;21.60;73.90;;;24.26;54.95;100855.34;5050170;28;20446;-71
2022/08/04 04:11:32;;;;;;;9.70;8.70;;;22.30;62.20;;;25.74;50.66;100846.63;5048132;28;20410;-71
2022/08/04 04:14:22;;;;;;;11.97;9.17;;;23.10;49.10;;;26.78;48.29;100842.03;5031647;28;20439;-72
2022/08/04 04:17:37;;;;;;;10.53;7.80;;;23.90;40.60;;;27.46;45.91;100848.53;5047439;28;20458;-71
2022/08/04 04:20:50;;;;;;;9.43;8.47;;;24.60;31.50;;;27.84;45.22;100854.53;5033795;28;20853;-71
2022/08/04 04:23:55;;;;;;;9.93;8.00;;;25.40;25.30;;;28.46;44.37;100849.78;5023427;28;20574;-71
2022/08/04 04:26:46;;;;;;;11.10;8.70;;;25.50;23.50;;;28.94;42.84;100853.34;5050053;28;20465;-70
2022/08/04 04:30:00;;;;;;;10.70;9.50;;;25.70;21.80;;;29.64;41.09;100840.22;5048897;28;20498;-70
2022/08/04 04:32:52;;;;;;;11.40;8.50;;;26.10;18.90;;;30.02;40.12;100845.88;5049362;28;20590;-71
2022/08/04 04:35:41;;;;;;;12.30;8.57;;;26.80;16.00;;;30.20;39.38;100853.06;5050045;28;20852;-70
2022/08/04 04:38:52;;;;;;;9.40;8.07;;;26.90;13.40;;;30.69;39.32;100864.66;5047005;28;20432;-71
2022/08/04 04:42:01;;;;;;;9.13;8.33;;;27.20;13.60;;;31.21;37.83;100860.38;5033732;28;20938;-71
2022/08/04 04:45:09;;;;;;;9.20;8.40;;;27.70;10.40;;;31.58;36.43;100854.97;5041932;28;20976;-70
2022/08/04 04:47:54;;;;;;;9.60;8.63;;;27.90;9.10;;;31.80;35.40;100861.00;5049904;28;20474;-71
2022/08/04 04:50:56;;;;;;;8.70;7.80;;;28.00;6.00;;;32.13;34.43;100869.38;5047360;28;20489;-71
2022/08/04 04:53:38;;;;;;;7.80;7.03;;;28.30;4.50;;;31.92;34.57;100872.19;5046643;28;20431;-71
2022/08/04 04:56:23;;;;;;;9.57;7.60;;;28.50;2.80;;;31.93;34.41;100871.03;5065891;22;20880;-72
2022/08/04 04:58:55;;;;;;;9.00;8.10;;;28.50;1.90;;;32.33;33.72;100865.66;5047786;28;20450;-72
2022/08/04 05:02:15;;;;;;;8.90;8.20;;;28.80;1.40;;;32.95;32.81;100867.28;5033315;28;20865;-72
2022/08/04 05:05:33;;;;;;;8.17;7.47;;;29.20;1.00;;;33.21;32.23;100866.06;4976929;28;20453;-73
2022/08/04 05:09:05;;;;;;;7.97;7.17;;;29.10;1.00;;;33.26;32.28;100863.03;5000942;28;20804;-73
2022/08/04 05:12:14;;;;;;;8.23;7.53;;;29.00;1.00;;;33.75;31.78;100856.03;5014798;28;20462;-74
2022/08/04 05:15:08;;;;;;;9.10;8.20;;;29.30;1.00;;;33.85;31.42;100865.91;5033397;28;20459;-73
2022/08/04 05:17:44;;;;;;;8.73;7.90;;;29.60;1.00;;;34.01;31.47;100875.19;5031872;28;20462;-73
2022/08/04 05:20:20;;;;;;;8.10;7.50;;;30.00;1.00;;;33.50;31.72;100871.34;5036306;28;20530;-72
2022/08/04 05:22:56;;;;;;;7.87;7.27;;;29.40;1.00;;;34.03;31.66;100867.22;5023402;28;20857;-73
2022/08/04 05:25:35;;;;;;;9.20;8.40;;;29.60;1.00;;;34.55;30.53;100866.97;5030571;28;20443;-72
2022/08/04 05:28:10;;;;;;;11.03;9.93;;;30.20;1.00;;;34.17;30.94;100872.38;5010544;28;20470;-72
2022/08/04 05:30:47;;;;;;;9.60;8.90;;;30.10;1.00;;;32.45;33.53;100869.59;5023453;28;20453;-73
2022/08/04 05:33:27;;;;;;;8.47;7.77;;;29.40;1.00;;;29.79;37.65;100870.38;5029221;28;20451;-75
2022/08/04 05:36:05;;;;;;;14.53;9.13;;;28.50;1.00;;;28.46;40.25;100867.31;5016064;28;20448;-75
2022/08/04 05:38:58;;;;;;;9.57;8.80;;;27.90;1.00;;;27.45;42.70;100869.16;5028367;28;20439;-74
2022/08/04 05:41:30;;;;;;;9.00;8.30;;;27.10;2.50;;;26.91;44.47;100873.75;5026961;28;20516;-74
2022/08/04 05:44:17;;;;;;;9.67;8.80;;;26.60;4.20;;;26.57;44.36;100865.00;5022031;28;20460;-73
2022/08/04 05:46:51;;;;;;;15.03;8.60;;;26.20;5.10;;;26.50;45.44;100870.13;5024088;28;20446;-74
2022/08/04 05:49:27;;;;;;;10.37;9.57;;;26.10;6.00;;;26.43;44.64;100866.97;5027900;28;20478;-74
2022/08/04 05:52:01;;;;;;;10.60;9.60;;;26.00;5.50;;;26.45;45.03;100871.06;5029265;28;20439;-75
2022/08/04 05:54:33;;;;;;;9.13;8.30;;;26.00;5.90;;;26.47;45.13;100866.03;5028278;28;20558;-74
2022/08/04 05:57:05;;;;;;;8.80;7.90;;;26.10;5.70;;;26.35;44.14;100874.88;5027078;28;20447;-76
2022/08/04 05:59:41;;;;;;;8.90;8.00;;;26.00;5.10;;;26.42;44.44;100871.69;5023572;28;20449;-75
2022/08/04 06:02:11;;;;;;;10.30;9.23;;;26.00;5.50;;;26.44;44.98;100865.81;5013164;28;20447;-73
2022/08/04 06:04:46;;;;;;;9.80;8.80;;;26.00;5.70;;;26.52;44.45;100874.25;5023824;28;20474;-74
2022/08/04 06:07:16;;;;;;;10.47;8.60;;;26.00;5.50;;;26.60;44.48;100869.94;5025655;28;20519;-75
2022/08/04 06:09:46;;;;;;;9.27;8.23;;;26.10;5.40;;;26.75;43.91;100867.66;5032280;28;20467;-73
2022/08/04 06:12:21;;;;;;;11.90;9.00;;;26.30;5.10;;;26.87;43.41;100869.13;5025753;28;21070;-74
2022/08/04 06:14:55;;;;;;;8.87;8.07;;;26.40;4.80;;;27.06;42.81;100867.03;5032478;28;21025;-74
2022/08/04 06:17:33;;;;;;;9.57;8.67;;;26.50;4.50;;;27.10;43.22;100874.41;5027922;28;20796;-74
2022/08/04 06:20:30;;;;;;;9.93;8.10;;;26.60;4.30;;;27.28;42.17;100874.53;5023590;28;20428;-76
2022/08/04 06:23:08;;;;;;;10.63;9.73;;;26.80;3.70;;;27.25;42.73;100876.81;5024738;28;21049;-75
2022/08/04 06:25:46;;;;;;;8.30;7.50;;;26.80;3.70;;;27.33;42.54;100877.22;5030482;28;20434;-73
2022/08/04 06:28:17;;;;;;;11.40;7.00;;;26.90;3.50;;;27.42;42.00;100872.53;5033675;28;20415;-75
2022/08/04 06:30:49;;;;;;;9.23;8.33;;;27.00;2.90;;;27.46;42.19;100882.69;5031162;28;20497;-75
2022/08/04 06:33:32;;;;;;;8.37;7.50;;;27.10;3.30;;;27.71;41.48;100878.50;5028339;28;20531;-74
2022/08/04 06:36:23;;;;;;;8.93;8.13;;;27.30;3.00;;;27.75;41.58;100885.06;5033436;28;20439;-75
2022/08/04 06:38:54;;;;;;;10.53;9.63;;;27.40;2.60;;;27.92;41.50;100889.94;5030114;28;20452;-75
2022/08/04 06:41:28;;;;;;;8.53;7.73;;;27.50;2.70;;;28.08;40.83;100883.63;5031556;28;20471;-74
2022/08/04 06:44:03;;;;;;;8.93;8.13;;;27.70;1.80;;;28.22;40.22;100882.75;5028985;28;20644;-74
2022/08/04 06:46:34;;;;;;;7.93;7.23;;;27.70;1.50;;;28.35;40.58;100892.97;5025237;28;20586;-74
2022/08/04 06:49:04;;;;;;;7.60;7.00;;;27.90;1.30;;;28.51;39.94;100885.81;5023295;28;20468;-74
2022/08/04 06:51:39;;;;;;;9.07;8.17;;;28.00;1.00;;;28.61;40.03;100891.06;5027149;28;20526;-74
2022/08/04 06:54:17;;;;;;;8.77;8.03;;;28.20;1.00;;;28.78;39.72;100893.94;5031056;28;20502;-73
2022/08/04 06:56:49;;;;;;;9.57;8.57;;;28.30;1.00;;;28.85;39.94;100885.13;5036614;28;20451;-74
2022/08/04 06:59:21;;;;;;;9.50;6.93;;;28.50;1.00;;;28.91;39.56;100881.84;5039945;28;20442;-74
2022/08/04 07:01:52;;;;;;;8.10;7.40;;;28.60;1.00;;;29.17;39.24;100881.06;5037764;28;20471;-74
2022/08/04 07:04:22;;;;;;;7.63;7.00;;;28.80;1.00;;;29.12;39.11;100881.22;5036515;28;20459;-73
2022/08/04 07:06:53;;;;;;;12.80;7.50;;;28.70;1.00;;;29.16;38.67;100885.00;5031627;28;20427;-73
2022/08/04 07:09:23;;;;;;;9.57;7.33;;;28.70;1.00;;;29.19;38.39;100879.56;5032249;28;20464;-73
2022/08/04 07:11:52;;;;;;;7.83;7.00;;;28.80;1.00;;;29.41;38.26;100883.38;5035486;28;21017;-74
2022/08/04 07:14:24;;;;;;;8.27;7.47;;;29.00;1.00;;;29.56;38.46;100883.72;5031851;28;20922;-73
2022/08/04 07:16:56;;;;;;;15.13;7.83;;;29.10;1.00;;;29.58;38.46;100880.59;5037469;28;20531;-73
2022/08/04 07:19:25;;;;;;;10.10;6.50;;;29.20;1.00;;;29.58;38.49;100881.41;5030961;28;20785;-72
2022/08/04 07:21:56;;;;;;;8.33;7.53;;;29.20;1.00;;;29.67;38.41;100879.44;5031511;28;20460;-72
2022/08/04 07:24:46;;;;;;;7.60;6.20;;;29.30;1.00;;;29.86;37.55;100873.50;5037760;28;20445;-72
2022/08/04 07:27:18;;;;;;;7.03;6.40;;;29.30;1.00;;;29.93;37.78;100873.00;5037406;28;20452;-73
2022/08/04 07:30:09;;;;;;;7.97;7.27;;;29.50;1.00;;;30.21;37.09;100871.41;5024525;28;20475;-72
2022/08/04 07:32:42;;;;;;;6.87;6.27;;;29.70;1.00;;;30.40;36.95;100868.25;5034605;28;20919;-72
2022/08/04 07:35:14;;;;;;;8.07;7.30;;;29.80;1.00;;;30.40;36.59;100868.25;5034597;28;20988;-72
2022/08/04 07:38:05;;;;;;;7.63;6.83;;;30.00;1.00;;;30.59;36.29;100869.50;5028919;28;20447;-73
2022/08/04 07:40:38;;;;;;;6.90;6.17;;;30.10;1.00;;;30.77;35.58;100870.19;5040018;28;20795;-73
2022/08/04 07:43:08;;;;;;;8.37;7.67;;;30.30;1.00;;;30.88;35.58;100868.66;5034429;28;20486;-73
2022/08/04 07:45:38;;;;;;;8.70;7.90;;;30.40;1.00;;;30.82;35.90;100858.81;5038204;28;20955;-73
2022/08/04 07:48:09;;;;;;;7.13;6.53;;;30.40;1.00;;;30.94;35.89;100861.69;5037274;28;20479;-73
2022/08/04 07:50:42;;;;;;;8.80;7.37;;;30.40;1.00;;;31.05;35.48;100853.75;5032295;28;20503;-73
2022/08/04 07:53:13;;;;;;;7.83;7.13;;;30.50;1.00;;;31.04;35.38;100861.31;5047675;28;20883;-73
2022/08/04 07:56:04;;;;;;;7.87;7.17;;;30.60;1.00;;;31.02;35.42;100863.66;5052377;28;20481;-72
2022/08/04 07:58:33;;;;;;;8.67;7.90;;;30.70;1.00;;;31.16;35.20;100862.56;5059171;28;20439;-73
2022/08/04 08:01:03;;;;;;;9.33;7.47;;;30.70;1.00;;;31.16;35.01;100857.78;5050417;28;20479;-73
2022/08/04 08:03:33;;;;;;;7.90;5.97;;;30.80;1.00;;;31.27;34.83;100859.00;5053530;28;20491;-73
2022/08/04 08:06:02;;;;;;;9.47;7.50;;;30.80;1.00;;;31.37;34.56;100850.19;5051329;28;20475;-73
2022/08/04 08:08:52;;;;;;;8.80;7.60;;;31.00;1.00;;;31.45;34.16;100856.88;5024933;28;20903;-75
2022/08/04 08:11:22;;;;;;;6.70;5.87;;;31.00;1.00;;;31.59;34.07;100851.00;5036583;28;20789;-74
2022/08/04 08:14:13;;;;;;;6.67;5.57;;;31.20;1.00;;;31.71;33.84;100845.47;5035307;28;20867;-73
2022/08/04 08:16:43;;;;;;;7.33;6.77;;;31.20;1.00;;;31.77;33.76;100844.06;5034393;28;20478;-74
2022/08/04 08:19:13;;;;;;;7.30;6.70;;;31.40;1.00;;;32.02;33.54;100848.53;5029259;28;20956;-73
2022/08/04 08:21:47;;;;;;;8.70;6.80;;;31.50;1.00;;;32.12;33.40;100844.50;5039063;28;20432;-74
2022/08/04 08:24:31;;;;;;;6.83;6.23;;;31.60;1.00;;;32.06;32.82;100838.28;5028382;28;20458;-72
2022/08/04 08:27:03;;;;;;;7.23;6.33;;;31.70;1.00;;;32.06;32.68;100840.25;5033824;28;20460;-72
2022/08/04 08:29:34;;;;;;;6.40;5.80;;;31.70;1.00;;;32.24;32.59;100842.53;5022181;28;20455;-73
2022/08/04 08:32:08;;;;;;;6.30;5.70;;;31.80;1.00;;;32.30;32.77;100834.72;5030029;28;20451;-74
2022/08/04 08:34:39;;;;;;;6.47;5.83;;;31.80;1.00;;;32.39;32.49;100838.22;5027794;28;20427;-74
2022/08/04 08:37:17;;;;;;;7.50;6.07;;;32.00;1.00;;;32.27;32.68;100841.03;5029558;28;20463;-73
2022/08/04 08:39:57;;;;;;;6.93;5.90;;;31.90;1.00;;;32.42;32.65;100836.72;5027140;28;20966;-74
2022/08/04 08:43:09;;;;;;;7.30;6.27;;;32.00;1.00;;;32.59;32.50;100831.66;5029593;28;20614;-72
2022/08/04 08:47:00;;;;;;;6.93;6.40;;;32.00;1.00;;;32.77;32.31;100832.28;5023928;28;20429;-72
2022/08/04 08:50:02;;;;;;;5.97;5.57;;;32.30;1.00;;;32.90;31.88;100833.88;4988718;28;20962;-73
2022/08/04 08:53:00;;;;;;;6.63;5.93;;;32.50;1.00;;;33.05;32.12;100835.94;5032255;28;20913;-73
2022/08/04 08:55:50;;;;;;;8.70;6.90;;;32.60;1.00;;;33.05;31.51;100835.94;5022898;28;20462;-72
2022/08/04 08:58:42;;;;;;;6.73;6.13;;;32.60;1.00;;;33.23;31.88;100833.69;5026826;28;20986;-73
2022/08/04 09:01:32;;;;;;;6.30;5.80;;;32.80;1.00;;;33.45;31.51;100830.31;5031151;28;20434;-72
2022/08/04 09:04:39;;;;;;;6.43;5.93;;;32.90;1.00;;;33.50;30.60;100838.47;5018806;28;20465;-74
2022/08/04 09:07:34;;;;;;;5.73;5.23;;;32.90;1.00;;;33.59;30.94;100830.72;5030275;28;20429;-74
2022/08/04 09:10:14;;;;;;;7.87;6.43;;;33.00;1.00;;;33.66;30.92;100835.72;5030161;28;20561;-74
2022/08/04 09:12:56;;;;;;;5.87;5.23;;;33.10;1.00;;;33.88;30.59;100837.13;5029860;28;20466;-74
2022/08/04 09:15:37;;;;;;;6.00;5.50;;;33.30;1.00;;;34.03;30.44;100836.34;5017997;28;20448;-74
2022/08/04 09:18:18;;;;;;;5.50;5.00;;;33.50;1.00;;;34.02;30.21;100837.50;5029155;28;20442;-74
2022/08/04 09:20:54;;;;;;;4.60;4.20;;;33.50;1.00;;;34.04;29.52;100833.16;5011940;28;20467;-75
2022/08/04 09:23:41;;;;;;;5.83;5.27;;;33.50;1.00;;;34.10;29.95;100838.50;5033826;28;20521;-73
2022/08/04 09:26:25;;;;;;;5.30;4.80;;;33.60;1.00;;;34.42;29.58;100834.53;5026063;28;20424;-73
2022/08/04 09:29:08;;;;;;;4.50;4.20;;;33.80;1.00;;;34.52;28.83;100827.56;5027610;28;20962;-73
2022/08/04 09:31:53;;;;;;;6.10;4.87;;;34.00;1.00;;;34.53;28.87;100824.34;5030291;28;20976;-73
2022/08/04 09:35:03;;;;;;;7.07;4.87;;;34.10;1.00;;;34.57;29.14;100825.25;5030245;28;20698;-74
2022/08/04 09:37:46;;;;;;;5.10;4.70;;;34.00;1.00;;;34.78;28.79;100822.97;5029354;28;20855;-73
2022/08/04 09:40:26;;;;;;;12.50;4.80;;;34.20;1.00;;;34.96;27.38;100819.72;5029335;28;20840;-74
2022/08/04 09:43:38;;;;;;;5.00;4.60;;;34.40;1.00;;;35.00;27.63;100820.63;5029223;28;20467;-73
2022/08/04 09:46:39;;;;;;;4.87;4.37;;;34.50;1.00;;;35.09;27.07;100821.22;5024613;28;20432;-73
2022/08/04 09:49:18;;;;;;;5.23;4.80;;;34.60;1.00;;;35.01;27.01;100816.63;5030958;28;20488;-73
2022/08/04 09:52:10;;;;;;;4.60;3.67;;;34.60;1.00;;;35.05;25.87;100811.91;5031855;28;20467;-73
2022/08/04 09:54:53;;;;;;;4.60;4.20;;;34.60;1.00;;;34.74;28.00;100816.47;5022971;28;20436;-75
2022/08/04 09:57:41;;;;;;;5.03;4.43;;;34.50;1.00;;;34.77;27.91;100812.91;5018691;28;20656;-73
2022/08/04 10:00:15;;;;;;;5.40;4.10;;;34.30;1.00;;;34.80;28.15;100808.56;5026184;28;20437;-73
2022/08/04 10:02:55;;;;;;;4.27;3.87;;;34.30;1.00;;;34.67;28.71;100813.47;5024017;28;20538;-73
2022/08/04 10:05:42;;;;;;;9.83;4.60;;;34.30;1.00;;;34.83;28.49;100805.81;5015972;28;20814;-73
2022/08/04 10:08:35;;;;;;;6.10;5.50;;;34.30;1.00;;;34.77;28.86;100812.91;5016634;28;20939;-74
2022/08/04 10:11:14;;;;;;;5.50;5.00;;;34.20;1.00;;;34.95;28.90;100804.88;5019107;28;20468;-74
2022/08/04 10:13:57;;;;;;;9.03;5.80;;;34.40;1.00;;;35.14;28.37;100806.88;5028784;28;20526;-74
2022/08/04 10:16:47;;;;;;;6.27;5.70;;;34.50;1.00;;;35.27;28.64;100802.75;5027258;28;20812;-74
2022/08/04 10:19:28;;;;;;;4.67;4.37;;;34.70;1.00;;;35.39;28.47;100799.75;5030500;28;20432;-74
2022/08/04 10:22:15;;;;;;;5.40;4.40;;;34.80;1.00;;;35.40;27.97;100798.59;5034615;28;20531;-74
2022/08/04 10:25:22;;;;;;;5.80;4.63;;;34.90;1.00;;;35.33;28.02;100801.28;5026434;28;20463;-74
2022/08/04 10:28:21;;;;;;;5.30;4.80;;;34.90;1.00;;;35.32;28.57;100796.81;5033531;28;20456;-73
2022/08/04 10:30:57;;;;;;;5.53;5.13;;;34.90;1.00;;;35.26;27.96;100789.88;5037149;28;20456;-74
2022/08/04 10:33:37;;;;;;;5.73;5.27;;;34.80;1.00;;;35.40;28.77;100781.69;5034645;28;20558;-74
2022/08/04 10:36:13;;;;;;;5.00;4.60;;;34.80;1.00;;;35.55;28.08;100779.97;5032725;28;20424;-74
2022/08/04 10:38:56;;;;;;;5.80;5.30;;;35.00;1.00;;;35.87;27.98;100781.41;5037030;28;20485;-73
2022/08/04 10:41:36;;;;;;;5.07;4.60;;;35.20;1.00;;;36.16;27.46;100782.72;5020550;28;20606;-73
2022/08/04 10:44:23;;;;;;;5.00;4.60;;;35.50;1.00;;;36.40;26.65;100785.13;5032798;22;20579;-73
2022/08/04 10:47:01;;;;;;;5.13;4.63;;;35.80;1.00;;;36.10;26.98;100784.19;5015619;28;20465;-72
2022/08/04 10:49:39;;;;;;;4.67;4.27;;;35.60;1.00;;;36.25;26.60;100774.81;5019638;28;20445;-72
2022/08/04 10:52:23;;;;;;;5.50;5.00;;;35.60;1.00;;;36.05;27.28;100776.06;5016595;28;20958;-72
2022/08/04 10:55:03;;;;;;;6.20;4.20;;;35.60;1.00;;;36.10;26.33;100778.56;5037524;22;20452;-74
2022/08/04 10:57:40;;;;;;;4.17;3.87;;;35.60;1.00;;;36.18;27.13;100780.34;5061789;28;20456;-73
2022/08/04 11:00:18;;;;;;;4.33;4.03;;;35.70;1.00;;;35.99;26.65;100771.94;5058281;28;20433;-73
2022/08/04 11:02:56;;;;;;;4.17;3.87;;;35.60;1.00;;;35.73;26.60;100764.25;5056023;28;20455;-73
2022/08/04 11:05:36;;;;;;;4.43;4.00;;;35.50;1.00;;;35.55;26.73;100763.91;5050956;28;20454;-73
2022/08/04 11:08:18;;;;;;;4.60;4.20;;;35.20;1.00;;;35.67;26.57;100755.31;5047799;28;20534;-73
2022/08/04 11:11:01;;;;;;;4.07;3.77;;;35.20;1.00;;;36.04;26.76;100763.16;5047344;28;20447;-72
2022/08/04 11:13:40;;;;;;;4.03;3.70;;;35.30;1.00;;;36.42;26.19;100754.53;5044890;28;20851;-73
2022/08/04 11:16:25;;;;;;;4.20;3.80;;;35.70;1.00;;;36.41;25.83;100747.28;5049565;28;20434;-74
2022/08/04 11:19:10;;;;;;;4.73;3.63;;;35.90;1.00;;;36.48;26.03;100755.84;5046014;28;20439;-75
2022/08/04 11:21:50;;;;;;;5.00;4.50;;;35.90;1.00;;;36.42;25.79;100746.09;5045253;28;20472;-73
2022/08/04 11:24:34;;;;;;;4.00;3.70;;;35.90;1.00;;;36.61;25.99;100747.16;5044740;28;20807;-73
2022/08/04 11:27:12;;;;;;;5.83;4.73;;;36.00;1.00;;;36.73;25.91;100744.13;5052166;28;20502;-73
2022/08/04 11:29:51;;;;;;;4.17;3.77;;;36.10;1.00;;;36.79;25.53;100743.41;5051026;28;20913;-74
2022/08/04 11:32:26;;;;;;;4.50;4.10;;;36.10;1.00;;;36.98;25.36;100745.25;5051030;28;20973;-74
2022/08/04 11:35:04;;;;;;;4.70;4.27;;;36.30;1.00;;;37.05;24.90;100744.50;5052709;28;20439;-73